Terminal Aerodrome Forecast
Issued by NWS Cleveland, OH

Home | Current Version | Previous Version | Graphics & Text | Print | Product List | Glossary On
Versions: 1 2 3 4 5 6 7 8 9 10 11 12 13 14 15 16 17 18 19 20 21 22 23 24 25 26 27
000
FTUS41 KCLE 262100 AAA
TAFCAK
TAF AMD
KCAK 262102Z 2621/2718 22010KT P6SM VCTS BKN045CB OVC080
      TEMPO 2621/2623 2SM -TSRA OVC018CB
     FM270600 23003KT 4SM BR BKN030
     FM271400 22008KT P6SM VCTS OVC030CB=

USA.gov is the U.S. government's official web portal to all federal, state and local government web resources and services.